< < Back
Terminal Aerodrome Forecast


Current Version              Previous Versions:   1  2  3  4  5  6  7  8  9  

Terminal Aerodrome Forecast

999
FTUS42 KFFC 282333
TAFCSG
TAF
KCSG 282333Z 2900/2924 00000KT P6SM SKC
     FM291600 17006KT P6SM FEW250
     FM292300 20007KT P6SM OVC070=

Latest METAR

309
SAUS70 KWBC 290000 RRA
MTRCSG
METAR KCSG 282351Z AUTO 14004KT 10SM CLR 10/M02 A3024 RMK AO2 SLP240
T01001022 10144 20100 50004 TSNO


USA.gov is the U.S. government's official web portal to all federal, state and local government web resources and services.